sensor_id;sensor_type;location;lat;lon;timestamp;P1;durP1;ratioP1;P2;durP2;ratioP2
49840;SDS011;35738;49.890;5.930;2023-07-22T00:02:23;8.05;;;6.07;;
49840;SDS011;35738;49.890;5.930;2023-07-22T00:04:50;8.35;;;6.70;;
49840;SDS011;35738;49.890;5.930;2023-07-22T00:07:16;7.07;;;6.05;;
49840;SDS011;35738;49.890;5.930;2023-07-22T00:09:43;9.98;;;6.85;;
49840;SDS011;35738;49.890;5.930;2023-07-22T00:12:10;9.15;;;6.35;;
49840;SDS011;35738;49.890;5.930;2023-07-22T00:14:38;9.60;;;6.40;;
49840;SDS011;35738;49.890;5.930;2023-07-22T00:17:06;9.43;;;6.80;;
49840;SDS011;35738;49.890;5.930;2023-07-22T00:19:34;10.40;;;7.07;;
49840;SDS011;35738;49.890;5.930;2023-07-22T00:22:00;10.60;;;6.72;;
49840;SDS011;35738;49.890;5.930;2023-07-22T00:24:27;8.80;;;6.43;;
49840;SDS011;35738;49.890;5.930;2023-07-22T00:26:55;7.90;;;6.50;;
49840;SDS011;35738;49.890;5.930;2023-07-22T00:29:22;7.45;;;6.03;;
49840;SDS011;35738;49.890;5.930;2023-07-22T00:31:48;9.15;;;6.63;;
49840;SDS011;35738;49.890;5.930;2023-07-22T00:34:15;8.98;;;6.80;;
49840;SDS011;35738;49.890;5.930;2023-07-22T00:36:42;9.43;;;6.50;;
49840;SDS011;35738;49.890;5.930;2023-07-22T00:39:10;9.63;;;6.50;;
49840;SDS011;35738;49.890;5.930;2023-07-22T00:41:40;10.73;;;6.85;;
49840;SDS011;35738;49.890;5.930;2023-07-22T00:44:08;9.32;;;7.00;;
49840;SDS011;35738;49.890;5.930;2023-07-22T00:46:35;10.90;;;7.40;;
49840;SDS011;35738;49.890;5.930;2023-07-22T00:49:02;8.77;;;6.72;;
49840;SDS011;35738;49.890;5.930;2023-07-22T00:51:29;9.73;;;7.30;;
49840;SDS011;35738;49.890;5.930;2023-07-22T00:53:55;11.10;;;7.80;;
49840;SDS011;35738;49.890;5.930;2023-07-22T00:56:22;10.18;;;7.35;;
49840;SDS011;35738;49.890;5.930;2023-07-22T00:58:49;9.10;;;6.50;;
49840;SDS011;35738;49.890;5.930;2023-07-22T01:01:17;9.25;;;6.68;;
49840;SDS011;35738;49.890;5.930;2023-07-22T01:03:43;9.55;;;6.70;;
49840;SDS011;35738;49.890;5.930;2023-07-22T01:06:12;8.35;;;6.68;;
49840;SDS011;35738;49.890;5.930;2023-07-22T01:08:40;9.07;;;6.45;;
49840;SDS011;35738;49.890;5.930;2023-07-22T01:11:07;8.43;;;6.43;;
49840;SDS011;35738;49.890;5.930;2023-07-22T01:13:34;7.95;;;6.03;;
49840;SDS011;35738;49.890;5.930;2023-07-22T01:16:01;9.55;;;6.38;;
49840;SDS011;35738;49.890;5.930;2023-07-22T01:18:27;8.68;;;5.95;;
49840;SDS011;35738;49.890;5.930;2023-07-22T01:20:54;9.88;;;6.75;;
49840;SDS011;35738;49.890;5.930;2023-07-22T01:23:21;9.27;;;6.70;;
49840;SDS011;35738;49.890;5.930;2023-07-22T01:25:48;12.73;;;7.03;;
49840;SDS011;35738;49.890;5.930;2023-07-22T01:28:15;9.23;;;6.57;;
49840;SDS011;35738;49.890;5.930;2023-07-22T01:30:42;10.27;;;6.70;;
49840;SDS011;35738;49.890;5.930;2023-07-22T01:33:09;10.80;;;7.03;;
49840;SDS011;35738;49.890;5.930;2023-07-22T01:35:36;8.98;;;6.45;;
49840;SDS011;35738;49.890;5.930;2023-07-22T01:38:02;9.40;;;6.15;;
49840;SDS011;35738;49.890;5.930;2023-07-22T01:40:29;7.90;;;5.75;;
49840;SDS011;35738;49.890;5.930;2023-07-22T01:42:57;7.55;;;5.82;;
49840;SDS011;35738;49.890;5.930;2023-07-22T01:45:23;6.22;;;5.63;;
49840;SDS011;35738;49.890;5.930;2023-07-22T01:47:50;8.75;;;6.55;;
49840;SDS011;35738;49.890;5.930;2023-07-22T01:50:17;7.47;;;6.35;;
49840;SDS011;35738;49.890;5.930;2023-07-22T01:52:45;7.18;;;5.68;;
49840;SDS011;35738;49.890;5.930;2023-07-22T01:55:12;10.00;;;6.53;;
49840;SDS011;35738;49.890;5.930;2023-07-22T01:57:39;7.90;;;6.25;;
49840;SDS011;35738;49.890;5.930;2023-07-22T02:00:06;6.22;;;5.40;;
49840;SDS011;35738;49.890;5.930;2023-07-22T02:02:37;7.13;;;5.50;;
49840;SDS011;35738;49.890;5.930;2023-07-22T02:05:04;6.47;;;5.53;;
49840;SDS011;35738;49.890;5.930;2023-07-22T02:07:31;9.75;;;6.07;;
49840;SDS011;35738;49.890;5.930;2023-07-22T02:09:57;7.13;;;5.20;;
49840;SDS011;35738;49.890;5.930;2023-07-22T02:12:24;6.95;;;5.20;;
49840;SDS011;35738;49.890;5.930;2023-07-22T02:14:50;6.63;;;5.03;;
49840;SDS011;35738;49.890;5.930;2023-07-22T02:17:17;7.03;;;5.38;;
49840;SDS011;35738;49.890;5.930;2023-07-22T02:19:44;5.50;;;4.72;;
49840;SDS011;35738;49.890;5.930;2023-07-22T02:22:10;6.28;;;4.97;;
49840;SDS011;35738;49.890;5.930;2023-07-22T02:24:37;6.97;;;4.70;;
49840;SDS011;35738;49.890;5.930;2023-07-22T02:27:05;5.50;;;4.68;;
49840;SDS011;35738;49.890;5.930;2023-07-22T02:29:34;4.93;;;4.43;;
49840;SDS011;35738;49.890;5.930;2023-07-22T02:32:00;5.75;;;4.40;;
49840;SDS011;35738;49.890;5.930;2023-07-22T02:34:27;4.75;;;4.25;;
49840;SDS011;35738;49.890;5.930;2023-07-22T02:36:54;5.95;;;4.47;;
49840;SDS011;35738;49.890;5.930;2023-07-22T02:39:21;6.45;;;5.05;;
49840;SDS011;35738;49.890;5.930;2023-07-22T02:41:48;4.90;;;4.47;;
49840;SDS011;35738;49.890;5.930;2023-07-22T02:44:15;4.43;;;3.97;;
49840;SDS011;35738;49.890;5.930;2023-07-22T02:46:41;6.15;;;4.45;;
49840;SDS011;35738;49.890;5.930;2023-07-22T02:49:08;5.45;;;4.40;;
49840;SDS011;35738;49.890;5.930;2023-07-22T02:51:34;4.82;;;4.35;;
49840;SDS011;35738;49.890;5.930;2023-07-22T02:54:01;4.95;;;4.35;;
49840;SDS011;35738;49.890;5.930;2023-07-22T02:56:29;4.35;;;3.95;;
49840;SDS011;35738;49.890;5.930;2023-07-22T02:58:56;4.10;;;3.65;;
49840;SDS011;35738;49.890;5.930;2023-07-22T03:01:23;4.45;;;3.95;;
49840;SDS011;35738;49.890;5.930;2023-07-22T03:03:51;6.60;;;4.00;;
49840;SDS011;35738;49.890;5.930;2023-07-22T03:06:17;4.38;;;3.97;;
49840;SDS011;35738;49.890;5.930;2023-07-22T03:08:45;4.20;;;3.80;;
49840;SDS011;35738;49.890;5.930;2023-07-22T03:11:11;5.25;;;4.43;;
49840;SDS011;35738;49.890;5.930;2023-07-22T03:13:38;4.20;;;3.70;;
49840;SDS011;35738;49.890;5.930;2023-07-22T03:16:04;6.13;;;4.50;;
49840;SDS011;35738;49.890;5.930;2023-07-22T03:18:31;6.65;;;5.18;;
49840;SDS011;35738;49.890;5.930;2023-07-22T03:20:58;5.60;;;4.53;;
49840;SDS011;35738;49.890;5.930;2023-07-22T03:23:24;6.72;;;5.30;;
49840;SDS011;35738;49.890;5.930;2023-07-22T03:25:51;8.38;;;5.35;;
49840;SDS011;35738;49.890;5.930;2023-07-22T03:28:18;5.75;;;4.40;;
49840;SDS011;35738;49.890;5.930;2023-07-22T03:30:45;6.55;;;5.10;;
49840;SDS011;35738;49.890;5.930;2023-07-22T03:33:12;5.38;;;4.78;;
49840;SDS011;35738;49.890;5.930;2023-07-22T03:35:38;7.10;;;5.00;;
49840;SDS011;35738;49.890;5.930;2023-07-22T03:38:07;10.07;;;6.65;;
49840;SDS011;35738;49.890;5.930;2023-07-22T03:40:34;11.65;;;7.15;;
49840;SDS011;35738;49.890;5.930;2023-07-22T03:43:00;9.52;;;7.00;;
49840;SDS011;35738;49.890;5.930;2023-07-22T03:45:28;9.65;;;6.63;;
49840;SDS011;35738;49.890;5.930;2023-07-22T03:47:58;10.23;;;7.03;;
49840;SDS011;35738;49.890;5.930;2023-07-22T03:50:26;9.90;;;7.25;;
49840;SDS011;35738;49.890;5.930;2023-07-22T03:52:54;8.73;;;6.60;;
49840;SDS011;35738;49.890;5.930;2023-07-22T03:55:21;10.18;;;7.13;;
49840;SDS011;35738;49.890;5.930;2023-07-22T03:57:47;12.27;;;7.50;;
49840;SDS011;35738;49.890;5.930;2023-07-22T04:00:14;10.52;;;7.70;;
49840;SDS011;35738;49.890;5.930;2023-07-22T04:02:41;10.13;;;7.20;;
49840;SDS011;35738;49.890;5.930;2023-07-22T04:05:08;9.15;;;6.93;;
49840;SDS011;35738;49.890;5.930;2023-07-22T04:07:36;9.57;;;7.65;;
49840;SDS011;35738;49.890;5.930;2023-07-22T04:10:02;11.60;;;8.48;;
49840;SDS011;35738;49.890;5.930;2023-07-22T04:12:29;11.63;;;7.32;;
49840;SDS011;35738;49.890;5.930;2023-07-22T04:14:56;13.23;;;7.97;;
49840;SDS011;35738;49.890;5.930;2023-07-22T04:17:23;12.45;;;7.60;;
49840;SDS011;35738;49.890;5.930;2023-07-22T04:19:50;13.93;;;7.97;;
49840;SDS011;35738;49.890;5.930;2023-07-22T04:22:18;13.30;;;8.55;;
49840;SDS011;35738;49.890;5.930;2023-07-22T04:24:46;11.52;;;8.18;;
49840;SDS011;35738;49.890;5.930;2023-07-22T04:27:15;12.50;;;8.50;;
49840;SDS011;35738;49.890;5.930;2023-07-22T04:29:44;13.20;;;7.60;;
49840;SDS011;35738;49.890;5.930;2023-07-22T04:32:11;12.65;;;7.95;;
49840;SDS011;35738;49.890;5.930;2023-07-22T04:34:38;11.32;;;8.10;;
49840;SDS011;35738;49.890;5.930;2023-07-22T04:37:05;11.18;;;7.93;;
49840;SDS011;35738;49.890;5.930;2023-07-22T04:39:32;12.30;;;8.23;;
49840;SDS011;35738;49.890;5.930;2023-07-22T04:41:59;11.80;;;7.70;;
49840;SDS011;35738;49.890;5.930;2023-07-22T04:44:26;12.07;;;8.23;;
49840;SDS011;35738;49.890;5.930;2023-07-22T04:46:53;11.45;;;8.13;;
49840;SDS011;35738;49.890;5.930;2023-07-22T04:49:20;10.73;;;8.00;;
49840;SDS011;35738;49.890;5.930;2023-07-22T04:51:48;14.30;;;9.18;;
49840;SDS011;35738;49.890;5.930;2023-07-22T04:54:15;11.07;;;8.00;;
49840;SDS011;35738;49.890;5.930;2023-07-22T04:56:42;13.00;;;8.88;;
49840;SDS011;35738;49.890;5.930;2023-07-22T04:59:09;11.95;;;9.13;;
49840;SDS011;35738;49.890;5.930;2023-07-22T05:01:36;12.23;;;8.77;;
49840;SDS011;35738;49.890;5.930;2023-07-22T05:04:03;15.60;;;9.40;;
49840;SDS011;35738;49.890;5.930;2023-07-22T05:06:31;13.45;;;9.23;;
49840;SDS011;35738;49.890;5.930;2023-07-22T05:08:58;12.55;;;8.98;;
49840;SDS011;35738;49.890;5.930;2023-07-22T05:11:25;13.43;;;9.50;;
49840;SDS011;35738;49.890;5.930;2023-07-22T05:13:52;14.25;;;9.88;;
49840;SDS011;35738;49.890;5.930;2023-07-22T05:16:19;12.38;;;8.85;;
49840;SDS011;35738;49.890;5.930;2023-07-22T05:18:47;15.20;;;9.32;;
49840;SDS011;35738;49.890;5.930;2023-07-22T05:21:14;16.95;;;10.27;;
49840;SDS011;35738;49.890;5.930;2023-07-22T05:23:41;15.55;;;9.55;;
49840;SDS011;35738;49.890;5.930;2023-07-22T05:26:08;13.63;;;9.18;;
49840;SDS011;35738;49.890;5.930;2023-07-22T05:28:34;13.13;;;8.60;;
49840;SDS011;35738;49.890;5.930;2023-07-22T05:31:01;12.45;;;8.43;;
49840;SDS011;35738;49.890;5.930;2023-07-22T05:33:28;21.33;;;13.98;;
49840;SDS011;35738;49.890;5.930;2023-07-22T05:35:54;15.07;;;9.00;;
49840;SDS011;35738;49.890;5.930;2023-07-22T05:38:21;13.70;;;8.88;;
49840;SDS011;35738;49.890;5.930;2023-07-22T05:40:47;11.88;;;8.52;;
49840;SDS011;35738;49.890;5.930;2023-07-22T05:43:14;9.85;;;7.60;;
49840;SDS011;35738;49.890;5.930;2023-07-22T05:45:42;11.13;;;8.10;;
49840;SDS011;35738;49.890;5.930;2023-07-22T05:48:08;29.27;;;21.42;;
49840;SDS011;35738;49.890;5.930;2023-07-22T05:50:35;10.68;;;8.38;;
49840;SDS011;35738;49.890;5.930;2023-07-22T05:53:02;10.65;;;7.60;;
49840;SDS011;35738;49.890;5.930;2023-07-22T05:55:30;10.32;;;7.35;;
49840;SDS011;35738;49.890;5.930;2023-07-22T05:57:56;11.40;;;8.23;;
49840;SDS011;35738;49.890;5.930;2023-07-22T06:00:23;11.02;;;8.00;;
49840;SDS011;35738;49.890;5.930;2023-07-22T06:02:50;11.68;;;7.97;;
49840;SDS011;35738;49.890;5.930;2023-07-22T06:05:16;10.68;;;8.18;;
49840;SDS011;35738;49.890;5.930;2023-07-22T06:07:43;11.50;;;8.48;;
49840;SDS011;35738;49.890;5.930;2023-07-22T06:10:10;11.20;;;7.85;;
49840;SDS011;35738;49.890;5.930;2023-07-22T06:12:37;10.40;;;7.53;;
49840;SDS011;35738;49.890;5.930;2023-07-22T06:15:05;11.07;;;7.93;;
49840;SDS011;35738;49.890;5.930;2023-07-22T06:17:32;33.17;;;22.42;;
49840;SDS011;35738;49.890;5.930;2023-07-22T06:20:00;14.65;;;8.95;;
49840;SDS011;35738;49.890;5.930;2023-07-22T06:22:27;12.25;;;8.45;;
49840;SDS011;35738;49.890;5.930;2023-07-22T06:24:53;11.00;;;7.97;;
49840;SDS011;35738;49.890;5.930;2023-07-22T06:27:20;10.73;;;7.60;;
49840;SDS011;35738;49.890;5.930;2023-07-22T06:29:47;11.10;;;8.07;;
49840;SDS011;35738;49.890;5.930;2023-07-22T06:32:13;8.95;;;7.80;;
49840;SDS011;35738;49.890;5.930;2023-07-22T06:34:40;11.25;;;7.28;;
49840;SDS011;35738;49.890;5.930;2023-07-22T06:37:07;8.35;;;6.82;;
49840;SDS011;35738;49.890;5.930;2023-07-22T06:39:33;9.38;;;6.97;;
49840;SDS011;35738;49.890;5.930;2023-07-22T06:42:00;8.60;;;6.57;;
49840;SDS011;35738;49.890;5.930;2023-07-22T06:44:26;7.93;;;6.78;;
49840;SDS011;35738;49.890;5.930;2023-07-22T06:46:54;10.80;;;6.97;;
49840;SDS011;35738;49.890;5.930;2023-07-22T06:49:21;8.35;;;7.43;;
49840;SDS011;35738;49.890;5.930;2023-07-22T06:51:47;8.00;;;6.95;;
49840;SDS011;35738;49.890;5.930;2023-07-22T06:54:14;8.40;;;6.72;;
49840;SDS011;35738;49.890;5.930;2023-07-22T06:56:41;9.48;;;7.13;;
49840;SDS011;35738;49.890;5.930;2023-07-22T06:59:07;8.68;;;6.18;;
49840;SDS011;35738;49.890;5.930;2023-07-22T07:01:35;9.15;;;6.43;;
49840;SDS011;35738;49.890;5.930;2023-07-22T07:04:01;10.43;;;7.70;;
49840;SDS011;35738;49.890;5.930;2023-07-22T07:06:30;8.88;;;6.55;;
49840;SDS011;35738;49.890;5.930;2023-07-22T07:09:01;9.40;;;6.57;;
49840;SDS011;35738;49.890;5.930;2023-07-22T07:11:28;9.25;;;6.50;;
49840;SDS011;35738;49.890;5.930;2023-07-22T07:13:55;8.57;;;5.85;;
49840;SDS011;35738;49.890;5.930;2023-07-22T07:18:50;8.88;;;6.32;;
49840;SDS011;35738;49.890;5.930;2023-07-22T07:21:18;8.52;;;6.40;;
49840;SDS011;35738;49.890;5.930;2023-07-22T07:23:47;7.88;;;6.05;;
49840;SDS011;35738;49.890;5.930;2023-07-22T07:26:14;15.18;;;11.52;;
49840;SDS011;35738;49.890;5.930;2023-07-22T07:28:41;7.00;;;6.03;;
49840;SDS011;35738;49.890;5.930;2023-07-22T07:31:08;8.15;;;6.30;;
49840;SDS011;35738;49.890;5.930;2023-07-22T07:33:34;9.30;;;5.85;;
49840;SDS011;35738;49.890;5.930;2023-07-22T07:36:01;5.90;;;5.35;;
49840;SDS011;35738;49.890;5.930;2023-07-22T07:38:29;6.13;;;5.22;;
49840;SDS011;35738;49.890;5.930;2023-07-22T07:40:57;5.35;;;4.35;;
49840;SDS011;35738;49.890;5.930;2023-07-22T07:43:25;7.07;;;4.60;;
49840;SDS011;35738;49.890;5.930;2023-07-22T07:46:12;5.70;;;4.57;;
49840;SDS011;35738;49.890;5.930;2023-07-22T07:48:45;4.55;;;4.15;;
49840;SDS011;35738;49.890;5.930;2023-07-22T07:51:15;5.10;;;4.60;;
49840;SDS011;35738;49.890;5.930;2023-07-22T07:53:43;4.93;;;4.45;;
49840;SDS011;35738;49.890;5.930;2023-07-22T07:56:10;5.45;;;4.65;;
49840;SDS011;35738;49.890;5.930;2023-07-22T07:58:38;5.40;;;4.63;;
49840;SDS011;35738;49.890;5.930;2023-07-22T08:01:05;7.38;;;4.95;;
49840;SDS011;35738;49.890;5.930;2023-07-22T08:03:33;7.65;;;6.65;;
49840;SDS011;35738;49.890;5.930;2023-07-22T08:06:01;4.60;;;4.20;;
49840;SDS011;35738;49.890;5.930;2023-07-22T08:08:29;5.47;;;4.75;;
49840;SDS011;35738;49.890;5.930;2023-07-22T08:13:42;5.63;;;4.60;;
49840;SDS011;35738;49.890;5.930;2023-07-22T08:16:11;5.85;;;4.63;;
49840;SDS011;35738;49.890;5.930;2023-07-22T08:18:39;5.20;;;4.20;;
49840;SDS011;35738;49.890;5.930;2023-07-22T08:21:06;5.20;;;4.40;;
49840;SDS011;35738;49.890;5.930;2023-07-22T08:23:34;5.43;;;4.25;;
49840;SDS011;35738;49.890;5.930;2023-07-22T08:26:04;4.68;;;4.00;;
49840;SDS011;35738;49.890;5.930;2023-07-22T08:28:34;5.78;;;4.40;;
49840;SDS011;35738;49.890;5.930;2023-07-22T08:31:01;5.28;;;4.28;;
49840;SDS011;35738;49.890;5.930;2023-07-22T08:33:28;5.63;;;3.92;;
49840;SDS011;35738;49.890;5.930;2023-07-22T08:36:06;7.03;;;3.88;;
49840;SDS011;35738;49.890;5.930;2023-07-22T08:38:33;4.20;;;3.80;;
49840;SDS011;35738;49.890;5.930;2023-07-22T08:41:00;5.03;;;4.00;;
49840;SDS011;35738;49.890;5.930;2023-07-22T08:43:27;6.15;;;3.85;;
49840;SDS011;35738;49.890;5.930;2023-07-22T08:45:57;4.43;;;3.85;;
49840;SDS011;35738;49.890;5.930;2023-07-22T08:48:29;4.47;;;3.55;;
49840;SDS011;35738;49.890;5.930;2023-07-22T08:51:02;3.85;;;3.55;;
49840;SDS011;35738;49.890;5.930;2023-07-22T08:53:31;3.72;;;3.35;;
49840;SDS011;35738;49.890;5.930;2023-07-22T08:56:00;3.55;;;3.25;;
49840;SDS011;35738;49.890;5.930;2023-07-22T08:58:27;4.22;;;3.50;;
49840;SDS011;35738;49.890;5.930;2023-07-22T09:00:55;3.85;;;3.55;;
49840;SDS011;35738;49.890;5.930;2023-07-22T09:03:22;4.57;;;3.40;;
49840;SDS011;35738;49.890;5.930;2023-07-22T09:05:50;3.63;;;3.25;;
49840;SDS011;35738;49.890;5.930;2023-07-22T09:08:17;4.07;;;3.47;;
49840;SDS011;35738;49.890;5.930;2023-07-22T09:10:44;3.65;;;3.20;;
49840;SDS011;35738;49.890;5.930;2023-07-22T09:13:13;4.15;;;3.70;;
49840;SDS011;35738;49.890;5.930;2023-07-22T09:15:40;4.20;;;3.40;;
49840;SDS011;35738;49.890;5.930;2023-07-22T09:18:07;4.00;;;3.30;;
49840;SDS011;35738;49.890;5.930;2023-07-22T09:20:34;4.10;;;3.35;;
49840;SDS011;35738;49.890;5.930;2023-07-22T09:23:01;6.53;;;4.63;;
49840;SDS011;35738;49.890;5.930;2023-07-22T09:25:39;4.05;;;3.65;;
49840;SDS011;35738;49.890;5.930;2023-07-22T09:28:06;4.30;;;3.10;;
49840;SDS011;35738;49.890;5.930;2023-07-22T09:30:34;4.63;;;3.92;;
49840;SDS011;35738;49.890;5.930;2023-07-22T09:33:03;6.10;;;3.80;;
49840;SDS011;35738;49.890;5.930;2023-07-22T09:35:46;4.65;;;3.50;;
49840;SDS011;35738;49.890;5.930;2023-07-22T09:38:14;5.45;;;3.58;;
49840;SDS011;35738;49.890;5.930;2023-07-22T09:40:43;4.43;;;3.45;;
49840;SDS011;35738;49.890;5.930;2023-07-22T09:43:10;4.82;;;3.95;;
49840;SDS011;35738;49.890;5.930;2023-07-22T09:45:38;4.10;;;3.55;;
49840;SDS011;35738;49.890;5.930;2023-07-22T09:48:05;6.65;;;3.42;;
49840;SDS011;35738;49.890;5.930;2023-07-22T09:50:35;4.60;;;3.80;;
49840;SDS011;35738;49.890;5.930;2023-07-22T09:53:03;6.97;;;3.72;;
49840;SDS011;35738;49.890;5.930;2023-07-22T09:55:30;6.38;;;3.80;;
49840;SDS011;35738;49.890;5.930;2023-07-22T09:58:02;4.18;;;3.33;;
49840;SDS011;35738;49.890;5.930;2023-07-22T10:00:32;4.85;;;4.13;;
49840;SDS011;35738;49.890;5.930;2023-07-22T10:03:01;4.03;;;3.63;;
49840;SDS011;35738;49.890;5.930;2023-07-22T10:05:33;4.22;;;3.78;;
49840;SDS011;35738;49.890;5.930;2023-07-22T10:08:01;5.30;;;3.60;;
49840;SDS011;35738;49.890;5.930;2023-07-22T10:10:33;6.35;;;3.70;;
49840;SDS011;35738;49.890;5.930;2023-07-22T10:13:01;3.90;;;3.60;;
49840;SDS011;35738;49.890;5.930;2023-07-22T10:15:29;4.38;;;3.80;;
49840;SDS011;35738;49.890;5.930;2023-07-22T10:17:57;4.20;;;3.90;;
49840;SDS011;35738;49.890;5.930;2023-07-22T10:20:24;4.60;;;4.15;;
49840;SDS011;35738;49.890;5.930;2023-07-22T10:22:51;6.22;;;3.92;;
49840;SDS011;35738;49.890;5.930;2023-07-22T10:25:18;4.07;;;3.72;;
49840;SDS011;35738;49.890;5.930;2023-07-22T10:27:46;5.75;;;4.82;;
49840;SDS011;35738;49.890;5.930;2023-07-22T10:30:15;4.60;;;4.20;;
49840;SDS011;35738;49.890;5.930;2023-07-22T10:32:45;4.30;;;3.90;;
49840;SDS011;35738;49.890;5.930;2023-07-22T10:38:11;4.15;;;3.58;;
49840;SDS011;35738;49.890;5.930;2023-07-22T10:40:45;5.20;;;3.80;;
49840;SDS011;35738;49.890;5.930;2023-07-22T10:43:17;5.32;;;4.13;;
49840;SDS011;35738;49.890;5.930;2023-07-22T10:45:50;4.97;;;4.22;;
49840;SDS011;35738;49.890;5.930;2023-07-22T10:48:18;4.25;;;3.80;;
49840;SDS011;35738;49.890;5.930;2023-07-22T10:50:47;4.57;;;4.18;;
49840;SDS011;35738;49.890;5.930;2023-07-22T11:07:05;4.80;;;4.30;;
49840;SDS011;35738;49.890;5.930;2023-07-22T11:09:35;4.63;;;4.13;;
49840;SDS011;35738;49.890;5.930;2023-07-22T11:14:37;4.82;;;4.20;;
49840;SDS011;35738;49.890;5.930;2023-07-22T11:17:06;5.40;;;4.47;;
49840;SDS011;35738;49.890;5.930;2023-07-22T11:19:37;5.55;;;4.78;;
49840;SDS011;35738;49.890;5.930;2023-07-22T11:22:04;6.10;;;4.50;;
49840;SDS011;35738;49.890;5.930;2023-07-22T11:24:35;5.97;;;4.70;;
49840;SDS011;35738;49.890;5.930;2023-07-22T11:27:06;5.22;;;4.10;;
49840;SDS011;35738;49.890;5.930;2023-07-22T11:29:34;7.82;;;6.60;;
49840;SDS011;35738;49.890;5.930;2023-07-22T11:34:32;6.47;;;4.75;;
49840;SDS011;35738;49.890;5.930;2023-07-22T11:36:59;5.63;;;4.90;;
49840;SDS011;35738;49.890;5.930;2023-07-22T11:39:26;5.82;;;4.65;;
49840;SDS011;35738;49.890;5.930;2023-07-22T11:41:55;4.70;;;4.20;;
49840;SDS011;35738;49.890;5.930;2023-07-22T11:44:26;4.75;;;4.00;;
49840;SDS011;35738;49.890;5.930;2023-07-22T11:46:58;4.50;;;4.10;;
49840;SDS011;35738;49.890;5.930;2023-07-22T11:49:29;8.00;;;4.10;;
49840;SDS011;35738;49.890;5.930;2023-07-22T11:52:11;6.05;;;3.83;;
49840;SDS011;35738;49.890;5.930;2023-07-22T11:54:42;8.82;;;4.80;;
49840;SDS011;35738;49.890;5.930;2023-07-22T11:57:22;5.32;;;4.10;;
49840;SDS011;35738;49.890;5.930;2023-07-22T11:59:53;4.63;;;4.22;;
49840;SDS011;35738;49.890;5.930;2023-07-22T12:02:25;6.72;;;4.10;;
49840;SDS011;35738;49.890;5.930;2023-07-22T12:04:58;7.53;;;3.90;;
49840;SDS011;35738;49.890;5.930;2023-07-22T12:07:27;5.72;;;4.03;;
49840;SDS011;35738;49.890;5.930;2023-07-22T12:09:56;5.38;;;3.80;;
49840;SDS011;35738;49.890;5.930;2023-07-22T12:12:37;4.47;;;4.05;;
49840;SDS011;35738;49.890;5.930;2023-07-22T12:15:12;4.78;;;4.35;;
49840;SDS011;35738;49.890;5.930;2023-07-22T12:20:18;5.18;;;3.90;;
49840;SDS011;35738;49.890;5.930;2023-07-22T12:22:45;6.03;;;4.00;;
49840;SDS011;35738;49.890;5.930;2023-07-22T12:25:11;7.72;;;4.68;;
49840;SDS011;35738;49.890;5.930;2023-07-22T12:27:38;4.57;;;4.10;;
49840;SDS011;35738;49.890;5.930;2023-07-22T12:30:05;4.57;;;4.18;;
49840;SDS011;35738;49.890;5.930;2023-07-22T12:32:33;6.18;;;4.38;;
49840;SDS011;35738;49.890;5.930;2023-07-22T12:35:00;4.97;;;4.38;;
49840;SDS011;35738;49.890;5.930;2023-07-22T12:37:29;6.05;;;4.57;;
49840;SDS011;35738;49.890;5.930;2023-07-22T12:39:56;5.50;;;4.32;;
49840;SDS011;35738;49.890;5.930;2023-07-22T12:42:23;4.53;;;4.10;;
49840;SDS011;35738;49.890;5.930;2023-07-22T12:44:50;4.50;;;4.10;;
49840;SDS011;35738;49.890;5.930;2023-07-22T12:47:17;5.57;;;4.55;;
49840;SDS011;35738;49.890;5.930;2023-07-22T12:49:44;5.30;;;4.28;;
49840;SDS011;35738;49.890;5.930;2023-07-22T12:52:11;6.05;;;4.45;;
49840;SDS011;35738;49.890;5.930;2023-07-22T12:54:38;4.60;;;4.10;;
49840;SDS011;35738;49.890;5.930;2023-07-22T12:57:05;7.57;;;4.53;;
49840;SDS011;35738;49.890;5.930;2023-07-22T12:59:32;4.60;;;4.20;;
49840;SDS011;35738;49.890;5.930;2023-07-22T13:01:59;5.40;;;4.38;;
49840;SDS011;35738;49.890;5.930;2023-07-22T13:04:26;5.53;;;4.38;;
49840;SDS011;35738;49.890;5.930;2023-07-22T13:06:55;4.95;;;4.45;;
49840;SDS011;35738;49.890;5.930;2023-07-22T13:09:22;5.00;;;4.50;;
49840;SDS011;35738;49.890;5.930;2023-07-22T13:11:49;5.68;;;4.22;;
49840;SDS011;35738;49.890;5.930;2023-07-22T13:14:15;5.30;;;4.30;;
49840;SDS011;35738;49.890;5.930;2023-07-22T13:16:44;5.70;;;4.70;;
49840;SDS011;35738;49.890;5.930;2023-07-22T13:19:11;6.68;;;4.45;;
49840;SDS011;35738;49.890;5.930;2023-07-22T13:21:37;4.50;;;4.10;;
49840;SDS011;35738;49.890;5.930;2023-07-22T13:24:04;4.90;;;4.18;;
49840;SDS011;35738;49.890;5.930;2023-07-22T13:26:31;5.43;;;4.63;;
49840;SDS011;35738;49.890;5.930;2023-07-22T13:28:58;7.00;;;4.00;;
49840;SDS011;35738;49.890;5.930;2023-07-22T13:31:25;5.28;;;4.78;;
49840;SDS011;35738;49.890;5.930;2023-07-22T13:33:53;4.70;;;4.07;;
49840;SDS011;35738;49.890;5.930;2023-07-22T13:36:19;5.03;;;3.78;;
49840;SDS011;35738;49.890;5.930;2023-07-22T13:41:17;6.70;;;3.80;;
49840;SDS011;35738;49.890;5.930;2023-07-22T13:43:43;4.97;;;3.80;;
49840;SDS011;35738;49.890;5.930;2023-07-22T13:46:10;4.82;;;4.00;;
49840;SDS011;35738;49.890;5.930;2023-07-22T13:48:36;5.13;;;4.18;;
49840;SDS011;35738;49.890;5.930;2023-07-22T13:51:03;4.72;;;3.92;;
49840;SDS011;35738;49.890;5.930;2023-07-22T13:53:30;4.80;;;3.97;;
49840;SDS011;35738;49.890;5.930;2023-07-22T13:55:57;6.60;;;3.90;;
49840;SDS011;35738;49.890;5.930;2023-07-22T13:58:24;5.05;;;4.57;;
49840;SDS011;35738;49.890;5.930;2023-07-22T14:00:51;4.05;;;3.65;;
49840;SDS011;35738;49.890;5.930;2023-07-22T14:03:17;4.53;;;3.70;;
49840;SDS011;35738;49.890;5.930;2023-07-22T14:05:45;5.45;;;4.03;;
49840;SDS011;35738;49.890;5.930;2023-07-22T14:08:12;5.65;;;3.75;;
49840;SDS011;35738;49.890;5.930;2023-07-22T14:10:39;5.38;;;3.72;;
49840;SDS011;35738;49.890;5.930;2023-07-22T14:13:06;4.25;;;3.85;;
49840;SDS011;35738;49.890;5.930;2023-07-22T14:15:32;4.25;;;3.60;;
49840;SDS011;35738;49.890;5.930;2023-07-22T14:17:59;5.28;;;4.00;;
49840;SDS011;35738;49.890;5.930;2023-07-22T14:20:25;6.70;;;3.85;;
49840;SDS011;35738;49.890;5.930;2023-07-22T14:22:52;3.63;;;3.30;;
49840;SDS011;35738;49.890;5.930;2023-07-22T14:25:19;3.97;;;3.55;;
49840;SDS011;35738;49.890;5.930;2023-07-22T14:27:45;4.50;;;4.03;;
49840;SDS011;35738;49.890;5.930;2023-07-22T14:30:12;5.45;;;4.03;;
49840;SDS011;35738;49.890;5.930;2023-07-22T14:32:38;4.07;;;3.67;;
49840;SDS011;35738;49.890;5.930;2023-07-22T14:35:06;6.03;;;3.65;;
49840;SDS011;35738;49.890;5.930;2023-07-22T14:37:32;5.88;;;3.72;;
49840;SDS011;35738;49.890;5.930;2023-07-22T14:39:59;4.40;;;3.45;;
49840;SDS011;35738;49.890;5.930;2023-07-22T14:42:26;4.15;;;3.75;;
49840;SDS011;35738;49.890;5.930;2023-07-22T14:44:52;6.88;;;4.10;;
49840;SDS011;35738;49.890;5.930;2023-07-22T14:47:19;3.83;;;3.53;;
49840;SDS011;35738;49.890;5.930;2023-07-22T14:49:46;4.90;;;3.42;;
49840;SDS011;35738;49.890;5.930;2023-07-22T14:52:12;4.93;;;3.90;;
49840;SDS011;35738;49.890;5.930;2023-07-22T14:54:39;3.70;;;3.40;;
49840;SDS011;35738;49.890;5.930;2023-07-22T14:57:06;4.45;;;3.75;;
49840;SDS011;35738;49.890;5.930;2023-07-22T14:59:33;4.80;;;3.72;;
49840;SDS011;35738;49.890;5.930;2023-07-22T15:02:00;4.78;;;3.88;;
49840;SDS011;35738;49.890;5.930;2023-07-22T15:04:27;6.07;;;3.30;;
49840;SDS011;35738;49.890;5.930;2023-07-22T15:06:53;5.13;;;3.90;;
49840;SDS011;35738;49.890;5.930;2023-07-22T15:09:20;6.10;;;3.78;;
49840;SDS011;35738;49.890;5.930;2023-07-22T15:11:46;5.47;;;3.53;;
49840;SDS011;35738;49.890;5.930;2023-07-22T15:14:13;5.35;;;3.80;;
49840;SDS011;35738;49.890;5.930;2023-07-22T15:16:39;4.05;;;3.63;;
49840;SDS011;35738;49.890;5.930;2023-07-22T15:19:07;5.88;;;3.63;;
49840;SDS011;35738;49.890;5.930;2023-07-22T15:21:34;4.68;;;3.45;;